sensor_id;sensor_type;location;lat;lon;timestamp;pressure;altitude;pressure_sealevel;temperature;humidity
35224;BME280;21367;51.930;8.112;2023-05-24T00:00:52;101674.34;;;8.66;84.47
35224;BME280;21367;51.930;8.112;2023-05-24T00:05:55;101676.28;;;8.70;84.31
35224;BME280;21367;51.930;8.112;2023-05-24T00:11:01;101680.63;;;8.58;84.84
35224;BME280;21367;51.930;8.112;2023-05-24T00:16:05;101690.56;;;8.53;84.69
35224;BME280;21367;51.930;8.112;2023-05-24T00:21:09;101687.81;;;8.50;84.54
35224;BME280;21367;51.930;8.112;2023-05-24T00:26:16;101681.81;;;8.50;85.23
35224;BME280;21367;51.930;8.112;2023-05-24T00:31:28;101669.38;;;8.18;87.15
35224;BME280;21367;51.930;8.112;2023-05-24T00:36:32;101679.03;;;8.47;85.28
35224;BME280;21367;51.930;8.112;2023-05-24T00:41:40;101673.16;;;8.36;85.71
35224;BME280;21367;51.930;8.112;2023-05-24T00:46:43;101666.13;;;8.45;85.83
35224;BME280;21367;51.930;8.112;2023-05-24T00:51:49;101671.78;;;8.28;86.35
35224;BME280;21367;51.930;8.112;2023-05-24T00:56:56;101662.81;;;8.34;86.57
35224;BME280;21367;51.930;8.112;2023-05-24T01:02:00;101654.94;;;8.31;86.66
35224;BME280;21367;51.930;8.112;2023-05-24T01:07:21;101651.16;;;8.26;86.80
35224;BME280;21367;51.930;8.112;2023-05-24T01:12:37;101650.88;;;8.22;86.88
35224;BME280;21367;51.930;8.112;2023-05-24T01:17:49;101645.75;;;8.22;86.69
35224;BME280;21367;51.930;8.112;2023-05-24T01:23:04;101649.25;;;8.10;88.59
35224;BME280;21367;51.930;8.112;2023-05-24T01:28:12;101634.88;;;7.99;87.83
35224;BME280;21367;51.930;8.112;2023-05-24T01:39:25;101630.41;;;7.83;88.44
35224;BME280;21367;51.930;8.112;2023-05-24T01:44:35;101637.53;;;8.01;88.86
35224;BME280;21367;51.930;8.112;2023-05-24T01:49:43;101634.72;;;7.84;89.01
35224;BME280;21367;51.930;8.112;2023-05-24T01:54:55;101630.06;;;7.79;89.54
35224;BME280;21367;51.930;8.112;2023-05-24T02:00:09;101627.41;;;7.77;89.76
35224;BME280;21367;51.930;8.112;2023-05-24T02:05:13;101622.09;;;7.74;89.50
35224;BME280;21367;51.930;8.112;2023-05-24T02:10:18;101621.34;;;7.63;90.10
35224;BME280;21367;51.930;8.112;2023-05-24T02:15:25;101622.72;;;7.58;90.85
35224;BME280;21367;51.930;8.112;2023-05-24T02:20:30;101627.47;;;7.65;90.13
35224;BME280;21367;51.930;8.112;2023-05-24T02:25:36;101635.81;;;7.63;89.91
35224;BME280;21367;51.930;8.112;2023-05-24T02:30:43;101623.44;;;7.44;90.72
35224;BME280;21367;51.930;8.112;2023-05-24T02:35:48;101633.06;;;7.48;91.16
35224;BME280;21367;51.930;8.112;2023-05-24T02:40:51;101639.78;;;7.46;91.77
35224;BME280;21367;51.930;8.112;2023-05-24T02:46:00;101627.19;;;7.49;92.50
35224;BME280;21367;51.930;8.112;2023-05-24T02:51:04;101635.75;;;7.50;92.58
35224;BME280;21367;51.930;8.112;2023-05-24T02:56:08;101627.66;;;7.44;93.01
35224;BME280;21367;51.930;8.112;2023-05-24T03:01:16;101623.19;;;7.53;92.98
35224;BME280;21367;51.930;8.112;2023-05-24T03:06:22;101625.97;;;7.44;93.16
35224;BME280;21367;51.930;8.112;2023-05-24T03:11:28;101632.78;;;7.44;93.95
35224;BME280;21367;51.930;8.112;2023-05-24T03:16:35;101637.09;;;7.45;93.26
35224;BME280;21367;51.930;8.112;2023-05-24T03:21:39;101630.63;;;7.50;93.38
35224;BME280;21367;51.930;8.112;2023-05-24T03:26:43;101627.00;;;7.46;93.34
35224;BME280;21367;51.930;8.112;2023-05-24T03:31:54;101619.78;;;7.29;95.10
35224;BME280;21367;51.930;8.112;2023-05-24T03:36:58;101626.66;;;7.41;95.24
35224;BME280;21367;51.930;8.112;2023-05-24T03:42:03;101639.28;;;7.52;94.74
35224;BME280;21367;51.930;8.112;2023-05-24T03:47:09;101634.66;;;7.46;94.30
35224;BME280;21367;51.930;8.112;2023-05-24T03:52:16;101641.94;;;7.65;94.55
35224;BME280;21367;51.930;8.112;2023-05-24T03:57:19;101646.03;;;7.63;94.79
35224;BME280;21367;51.930;8.112;2023-05-24T04:02:26;101651.53;;;7.81;95.03
35224;BME280;21367;51.930;8.112;2023-05-24T04:07:30;101649.53;;;7.77;95.68
35224;BME280;21367;51.930;8.112;2023-05-24T04:12:34;101654.66;;;7.77;96.21
35224;BME280;21367;51.930;8.112;2023-05-24T04:17:43;101651.41;;;7.79;95.95
35224;BME280;21367;51.930;8.112;2023-05-24T04:22:49;101648.78;;;7.78;97.38
35224;BME280;21367;51.930;8.112;2023-05-24T04:27:53;101643.31;;;7.98;97.19
35224;BME280;21367;51.930;8.112;2023-05-24T04:33:00;101652.28;;;8.05;96.41
35224;BME280;21367;51.930;8.112;2023-05-24T04:38:05;101649.41;;;7.87;96.71
35224;BME280;21367;51.930;8.112;2023-05-24T04:43:11;101640.63;;;8.08;96.01
35224;BME280;21367;51.930;8.112;2023-05-24T04:48:17;101650.28;;;7.87;97.54
35224;BME280;21367;51.930;8.112;2023-05-24T04:53:24;101636.88;;;7.78;100.00
35224;BME280;21367;51.930;8.112;2023-05-24T04:58:27;101633.56;;;7.68;100.00
35224;BME280;21367;51.930;8.112;2023-05-24T05:03:34;101650.59;;;7.92;100.00
35224;BME280;21367;51.930;8.112;2023-05-24T05:08:37;101647.34;;;8.33;98.21
35224;BME280;21367;51.930;8.112;2023-05-24T05:13:44;101646.72;;;9.02;94.89
35224;BME280;21367;51.930;8.112;2023-05-24T05:18:52;101650.38;;;8.79;93.44
35224;BME280;21367;51.930;8.112;2023-05-24T05:23:55;101646.75;;;9.43;99.71
35224;BME280;21367;51.930;8.112;2023-05-24T05:29:00;101653.16;;;9.65;90.12
35224;BME280;21367;51.930;8.112;2023-05-24T05:34:06;101652.22;;;9.63;89.35
35224;BME280;21367;51.930;8.112;2023-05-24T05:39:10;101652.19;;;9.91;89.36
35224;BME280;21367;51.930;8.112;2023-05-24T05:44:14;101654.31;;;10.26;87.19
35224;BME280;21367;51.930;8.112;2023-05-24T05:49:21;101663.16;;;9.88;87.89
35224;BME280;21367;51.930;8.112;2023-05-24T05:54:24;101663.34;;;9.91;89.49
35224;BME280;21367;51.930;8.112;2023-05-24T05:59:28;101674.44;;;10.05;89.83
35224;BME280;21367;51.930;8.112;2023-05-24T06:04:38;101670.09;;;10.32;87.95
35224;BME280;21367;51.930;8.112;2023-05-24T06:09:41;101671.66;;;10.30;88.95
35224;BME280;21367;51.930;8.112;2023-05-24T06:14:45;101670.88;;;10.61;87.51
35224;BME280;21367;51.930;8.112;2023-05-24T06:19:52;101672.09;;;10.97;85.47
35224;BME280;21367;51.930;8.112;2023-05-24T06:24:56;101675.78;;;11.33;84.28
35224;BME280;21367;51.930;8.112;2023-05-24T06:30:00;101680.97;;;11.19;84.50
35224;BME280;21367;51.930;8.112;2023-05-24T06:35:08;101670.41;;;11.29;83.76
35224;BME280;21367;51.930;8.112;2023-05-24T06:40:12;101665.06;;;11.90;82.74
35224;BME280;21367;51.930;8.112;2023-05-24T06:45:15;101676.00;;;12.18;80.91
35224;BME280;21367;51.930;8.112;2023-05-24T06:50:22;101681.19;;;12.36;80.42
35224;BME280;21367;51.930;8.112;2023-05-24T06:55:26;101676.38;;;12.60;78.86
35224;BME280;21367;51.930;8.112;2023-05-24T07:00:30;101682.28;;;12.58;79.31
35224;BME280;21367;51.930;8.112;2023-05-24T07:05:36;101680.59;;;12.94;75.80
35224;BME280;21367;51.930;8.112;2023-05-24T07:10:40;101689.66;;;12.86;76.56
35224;BME280;21367;51.930;8.112;2023-05-24T07:15:45;101692.66;;;13.13;75.90
35224;BME280;21367;51.930;8.112;2023-05-24T07:20:53;101686.19;;;13.03;76.63
35224;BME280;21367;51.930;8.112;2023-05-24T07:25:57;101692.00;;;13.72;74.16
35224;BME280;21367;51.930;8.112;2023-05-24T07:31:00;101690.97;;;13.49;72.38
35224;BME280;21367;51.930;8.112;2023-05-24T07:36:07;101697.56;;;13.42;73.63
35224;BME280;21367;51.930;8.112;2023-05-24T07:41:12;101696.56;;;13.78;73.25
35224;BME280;21367;51.930;8.112;2023-05-24T07:46:16;101692.75;;;12.96;76.75
35224;BME280;21367;51.930;8.112;2023-05-24T07:51:23;101694.91;;;13.23;74.65
35224;BME280;21367;51.930;8.112;2023-05-24T07:56:27;101695.53;;;14.13;72.81
35224;BME280;21367;51.930;8.112;2023-05-24T08:01:32;101694.13;;;14.41;68.21
35224;BME280;21367;51.930;8.112;2023-05-24T08:06:39;101686.78;;;14.92;68.68
35224;BME280;21367;51.930;8.112;2023-05-24T08:11:43;101695.25;;;14.88;67.25
35224;BME280;21367;51.930;8.112;2023-05-24T08:16:46;101686.41;;;14.62;68.60
35224;BME280;21367;51.930;8.112;2023-05-24T08:21:54;101696.28;;;14.70;67.65
35224;BME280;21367;51.930;8.112;2023-05-24T08:27:07;101696.50;;;14.55;67.31
35224;BME280;21367;51.930;8.112;2023-05-24T08:32:11;101696.91;;;14.65;68.16
35224;BME280;21367;51.930;8.112;2023-05-24T08:37:18;101707.66;;;14.14;68.89
35224;BME280;21367;51.930;8.112;2023-05-24T08:42:23;101697.84;;;14.07;70.77
35224;BME280;21367;51.930;8.112;2023-05-24T08:47:28;101706.97;;;13.99;68.33
35224;BME280;21367;51.930;8.112;2023-05-24T08:52:35;101692.13;;;15.17;67.59
35224;BME280;21367;51.930;8.112;2023-05-24T08:57:39;101689.03;;;15.50;65.50
35224;BME280;21367;51.930;8.112;2023-05-24T09:02:45;101683.59;;;15.20;65.41
35224;BME280;21367;51.930;8.112;2023-05-24T09:07:54;101692.44;;;14.61;67.29
35224;BME280;21367;51.930;8.112;2023-05-24T09:13:01;101695.97;;;15.06;65.74
35224;BME280;21367;51.930;8.112;2023-05-24T09:18:05;101690.53;;;15.43;61.73
35224;BME280;21367;51.930;8.112;2023-05-24T09:23:11;101699.41;;;15.27;61.71
35224;BME280;21367;51.930;8.112;2023-05-24T09:28:17;101690.66;;;15.24;61.35
35224;BME280;21367;51.930;8.112;2023-05-24T09:33:22;101694.41;;;15.32;60.75
35224;BME280;21367;51.930;8.112;2023-05-24T09:38:29;101702.63;;;14.78;62.74
35224;BME280;21367;51.930;8.112;2023-05-24T09:43:34;101699.03;;;14.75;63.59
35224;BME280;21367;51.930;8.112;2023-05-24T09:48:38;101702.16;;;15.10;63.19
35224;BME280;21367;51.930;8.112;2023-05-24T09:53:45;101706.22;;;15.03;66.52
35224;BME280;21367;51.930;8.112;2023-05-24T09:58:50;101705.06;;;15.62;62.90
35224;BME280;21367;51.930;8.112;2023-05-24T10:03:55;101703.59;;;15.46;63.13
35224;BME280;21367;51.930;8.112;2023-05-24T10:09:04;101707.53;;;15.82;63.47
35224;BME280;21367;51.930;8.112;2023-05-24T10:14:09;101709.59;;;15.45;62.23
35224;BME280;21367;51.930;8.112;2023-05-24T10:19:13;101704.59;;;15.50;64.16
35224;BME280;21367;51.930;8.112;2023-05-24T10:24:23;101711.59;;;15.75;63.86
35224;BME280;21367;51.930;8.112;2023-05-24T10:29:35;101700.88;;;16.38;62.99
35224;BME280;21367;51.930;8.112;2023-05-24T10:34:44;101710.28;;;16.10;63.64
35224;BME280;21367;51.930;8.112;2023-05-24T10:39:51;101719.56;;;15.80;64.36
35224;BME280;21367;51.930;8.112;2023-05-24T10:44:55;101718.72;;;15.36;66.95
35224;BME280;21367;51.930;8.112;2023-05-24T10:50:15;101716.81;;;15.54;65.32
35224;BME280;21367;51.930;8.112;2023-05-24T10:55:24;101716.84;;;14.67;66.33
35224;BME280;21367;51.930;8.112;2023-05-24T11:05:34;101723.00;;;15.35;67.10
35224;BME280;21367;51.930;8.112;2023-05-24T11:10:41;101705.75;;;16.29;63.45
35224;BME280;21367;51.930;8.112;2023-05-24T11:15:53;101707.34;;;16.01;62.04
35224;BME280;21367;51.930;8.112;2023-05-24T11:21:00;101701.38;;;16.52;62.57
35224;BME280;21367;51.930;8.112;2023-05-24T11:26:06;101710.16;;;16.07;62.79
35224;BME280;21367;51.930;8.112;2023-05-24T11:31:10;101700.16;;;16.68;60.84
35224;BME280;21367;51.930;8.112;2023-05-24T11:36:14;101700.88;;;16.89;61.06
35224;BME280;21367;51.930;8.112;2023-05-24T11:41:20;101695.22;;;16.00;62.79
35224;BME280;21367;51.930;8.112;2023-05-24T11:46:24;101698.91;;;15.60;64.11
35224;BME280;21367;51.930;8.112;2023-05-24T11:51:29;101708.91;;;15.72;63.30
35224;BME280;21367;51.930;8.112;2023-05-24T11:56:36;101698.72;;;15.77;63.23
35224;BME280;21367;51.930;8.112;2023-05-24T12:01:40;101701.47;;;15.59;64.46
35224;BME280;21367;51.930;8.112;2023-05-24T12:06:44;101701.72;;;15.20;66.45
35224;BME280;21367;51.930;8.112;2023-05-24T12:11:50;101703.66;;;15.94;65.72
35224;BME280;21367;51.930;8.112;2023-05-24T12:16:55;101689.09;;;16.22;63.42
35224;BME280;21367;51.930;8.112;2023-05-24T12:22:00;101691.06;;;16.29;62.83
35224;BME280;21367;51.930;8.112;2023-05-24T12:27:07;101687.97;;;17.19;62.29
35224;BME280;21367;51.930;8.112;2023-05-24T12:32:11;101694.75;;;17.73;59.32
35224;BME280;21367;51.930;8.112;2023-05-24T12:37:16;101696.59;;;17.18;60.71
35224;BME280;21367;51.930;8.112;2023-05-24T12:42:22;101700.56;;;16.54;60.66
35224;BME280;21367;51.930;8.112;2023-05-24T12:47:26;101701.84;;;16.67;60.61
35224;BME280;21367;51.930;8.112;2023-05-24T12:52:30;101712.28;;;16.17;62.48
35224;BME280;21367;51.930;8.112;2023-05-24T12:57:36;101714.84;;;15.92;63.32
35224;BME280;21367;51.930;8.112;2023-05-24T13:02:40;101710.88;;;15.79;64.63
35224;BME280;21367;51.930;8.112;2023-05-24T13:07:44;101707.34;;;16.01;63.23
35224;BME280;21367;51.930;8.112;2023-05-24T13:12:50;101703.88;;;16.01;63.67
35224;BME280;21367;51.930;8.112;2023-05-24T13:17:55;101693.16;;;16.14;63.64
35224;BME280;21367;51.930;8.112;2023-05-24T13:22:59;101694.09;;;17.21;61.11
35224;BME280;21367;51.930;8.112;2023-05-24T13:28:05;101686.97;;;18.03;58.58
35224;BME280;21367;51.930;8.112;2023-05-24T13:33:09;101687.69;;;16.57;62.02
35224;BME280;21367;51.930;8.112;2023-05-24T13:38:15;101695.06;;;16.96;61.04
35224;BME280;21367;51.930;8.112;2023-05-24T13:48:59;101692.84;;;16.81;61.16
35224;BME280;21367;51.930;8.112;2023-05-24T13:54:04;101693.25;;;16.94;61.11
35224;BME280;21367;51.930;8.112;2023-05-24T13:59:09;101691.44;;;16.14;64.53
35224;BME280;21367;51.930;8.112;2023-05-24T14:04:15;101692.47;;;15.49;67.57
35224;BME280;21367;51.930;8.112;2023-05-24T14:09:19;101694.75;;;15.41;68.49
35224;BME280;21367;51.930;8.112;2023-05-24T14:14:23;101702.47;;;15.62;68.00
35224;BME280;21367;51.930;8.112;2023-05-24T14:19:29;101707.28;;;15.53;68.16
35224;BME280;21367;51.930;8.112;2023-05-24T14:24:34;101711.31;;;15.45;68.04
35224;BME280;21367;51.930;8.112;2023-05-24T14:29:39;101711.13;;;15.40;68.00
35224;BME280;21367;51.930;8.112;2023-05-24T14:34:45;101700.59;;;15.36;68.67
35224;BME280;21367;51.930;8.112;2023-05-24T14:39:51;101695.53;;;15.61;68.40
35224;BME280;21367;51.930;8.112;2023-05-24T14:44:56;101689.38;;;15.82;66.51
35224;BME280;21367;51.930;8.112;2023-05-24T14:50:03;101692.38;;;15.92;66.33
35224;BME280;21367;51.930;8.112;2023-05-24T14:55:08;101699.28;;;15.47;68.85
35224;BME280;21367;51.930;8.112;2023-05-24T15:00:14;101689.13;;;15.52;69.26
35224;BME280;21367;51.930;8.112;2023-05-24T15:05:24;101704.59;;;15.50;69.28
35224;BME280;21367;51.930;8.112;2023-05-24T15:10:27;101698.03;;;16.30;65.74
35224;BME280;21367;51.930;8.112;2023-05-24T15:15:31;101695.25;;;16.26;65.88
35224;BME280;21367;51.930;8.112;2023-05-24T15:20:38;101693.41;;;16.47;66.97
35224;BME280;21367;51.930;8.112;2023-05-24T15:25:41;101687.78;;;17.13;63.93
35224;BME280;21367;51.930;8.112;2023-05-24T15:30:48;101698.28;;;17.75;60.37
35224;BME280;21367;51.930;8.112;2023-05-24T15:35:55;101699.28;;;17.78;60.41
35224;BME280;21367;51.930;8.112;2023-05-24T15:40:59;101697.13;;;17.94;61.12
35224;BME280;21367;51.930;8.112;2023-05-24T15:46:03;101697.03;;;17.91;60.25
35224;BME280;21367;51.930;8.112;2023-05-24T15:51:09;101699.59;;;17.61;60.65
35224;BME280;21367;51.930;8.112;2023-05-24T15:56:14;101703.66;;;17.22;61.77
35224;BME280;21367;51.930;8.112;2023-05-24T16:01:18;101701.28;;;16.50;63.99
35224;BME280;21367;51.930;8.112;2023-05-24T16:06:24;101704.06;;;16.55;65.58
35224;BME280;21367;51.930;8.112;2023-05-24T16:11:28;101704.41;;;16.40;64.48
35224;BME280;21367;51.930;8.112;2023-05-24T16:16:32;101701.59;;;16.34;65.81
35224;BME280;21367;51.930;8.112;2023-05-24T16:21:39;101697.81;;;16.50;65.49
35224;BME280;21367;51.930;8.112;2023-05-24T16:26:44;101694.03;;;16.65;63.80
35224;BME280;21367;51.930;8.112;2023-05-24T16:31:47;101684.41;;;16.88;63.63
35224;BME280;21367;51.930;8.112;2023-05-24T16:36:54;101675.66;;;16.85;63.56
35224;BME280;21367;51.930;8.112;2023-05-24T16:41:59;101678.28;;;16.35;64.64
35224;BME280;21367;51.930;8.112;2023-05-24T16:47:03;101675.75;;;16.11;64.85
35224;BME280;21367;51.930;8.112;2023-05-24T16:52:12;101672.28;;;17.45;62.28
35224;BME280;21367;51.930;8.112;2023-05-24T16:57:16;101672.72;;;16.49;63.95
35224;BME280;21367;51.930;8.112;2023-05-24T17:02:20;101675.00;;;16.39;64.36
35224;BME280;21367;51.930;8.112;2023-05-24T17:07:26;101679.88;;;16.56;63.43
35224;BME280;21367;51.930;8.112;2023-05-24T17:12:31;101675.28;;;16.74;62.90
35224;BME280;21367;51.930;8.112;2023-05-24T17:17:35;101678.13;;;16.56;65.10
35224;BME280;21367;51.930;8.112;2023-05-24T17:22:41;101671.44;;;15.88;66.31
35224;BME280;21367;51.930;8.112;2023-05-24T17:27:46;101675.44;;;15.78;68.86
35224;BME280;21367;51.930;8.112;2023-05-24T17:32:51;101665.53;;;16.41;66.39
35224;BME280;21367;51.930;8.112;2023-05-24T17:37:58;101678.09;;;15.35;69.66
35224;BME280;21367;51.930;8.112;2023-05-24T17:43:01;101672.69;;;15.73;69.64
35224;BME280;21367;51.930;8.112;2023-05-24T17:48:07;101669.19;;;15.97;67.54
35224;BME280;21367;51.930;8.112;2023-05-24T17:53:14;101683.13;;;14.87;72.25
35224;BME280;21367;51.930;8.112;2023-05-24T17:58:17;101682.91;;;15.48;70.73
35224;BME280;21367;51.930;8.112;2023-05-24T18:03:21;101686.44;;;15.72;69.22
35224;BME280;21367;51.930;8.112;2023-05-24T18:08:28;101688.38;;;15.78;69.35
35224;BME280;21367;51.930;8.112;2023-05-24T18:13:32;101686.34;;;15.69;70.66
35224;BME280;21367;51.930;8.112;2023-05-24T18:18:36;101693.69;;;15.59;72.32
35224;BME280;21367;51.930;8.112;2023-05-24T18:23:45;101697.53;;;15.46;72.19
35224;BME280;21367;51.930;8.112;2023-05-24T18:28:51;101692.88;;;15.37;73.69
35224;BME280;21367;51.930;8.112;2023-05-24T18:33:55;101693.91;;;15.65;72.04
35224;BME280;21367;51.930;8.112;2023-05-24T18:39:02;101707.16;;;15.71;70.90
35224;BME280;21367;51.930;8.112;2023-05-24T18:44:05;101712.66;;;15.35;71.20
35224;BME280;21367;51.930;8.112;2023-05-24T18:49:10;101712.25;;;15.47;73.02
35224;BME280;21367;51.930;8.112;2023-05-24T18:54:16;101700.06;;;15.01;72.11
35224;BME280;21367;51.930;8.112;2023-05-24T18:59:20;101702.28;;;15.13;72.02
35224;BME280;21367;51.930;8.112;2023-05-24T19:04:28;101710.00;;;14.48;75.82
35224;BME280;21367;51.930;8.112;2023-05-24T19:09:35;101718.97;;;14.56;77.28
35224;BME280;21367;51.930;8.112;2023-05-24T19:14:39;101721.91;;;14.25;78.68
35224;BME280;21367;51.930;8.112;2023-05-24T19:19:45;101732.28;;;14.06;79.87
35224;BME280;21367;51.930;8.112;2023-05-24T19:24:52;101729.56;;;13.83;81.11
35224;BME280;21367;51.930;8.112;2023-05-24T19:29:56;101730.56;;;13.68;81.97
35224;BME280;21367;51.930;8.112;2023-05-24T19:35:01;101740.91;;;13.68;81.81
35224;BME280;21367;51.930;8.112;2023-05-24T19:40:09;101744.84;;;13.41;82.87
35224;BME280;21367;51.930;8.112;2023-05-24T19:45:14;101754.38;;;13.25;84.23
35224;BME280;21367;51.930;8.112;2023-05-24T19:50:19;101757.03;;;13.26;85.02
35224;BME280;21367;51.930;8.112;2023-05-24T19:55:26;101756.22;;;13.27;86.58
35224;BME280;21367;51.930;8.112;2023-05-24T20:00:30;101761.94;;;13.22;88.27
35224;BME280;21367;51.930;8.112;2023-05-24T20:05:34;101766.13;;;13.02;89.00
35224;BME280;21367;51.930;8.112;2023-05-24T20:10:40;101772.91;;;13.17;88.98
35224;BME280;21367;51.930;8.112;2023-05-24T20:15:45;101767.97;;;13.04;89.54
35224;BME280;21367;51.930;8.112;2023-05-24T20:20:49;101781.81;;;12.88;92.11
35224;BME280;21367;51.930;8.112;2023-05-24T20:25:57;101783.31;;;13.01;91.68
35224;BME280;21367;51.930;8.112;2023-05-24T20:31:01;101789.97;;;12.80;93.16
35224;BME280;21367;51.930;8.112;2023-05-24T20:36:05;101788.47;;;12.67;92.59
35224;BME280;21367;51.930;8.112;2023-05-24T20:41:13;101796.13;;;12.65;93.34
35224;BME280;21367;51.930;8.112;2023-05-24T20:46:17;101789.34;;;12.67;92.77
35224;BME280;21367;51.930;8.112;2023-05-24T20:51:22;101796.72;;;12.60;92.64
35224;BME280;21367;51.930;8.112;2023-05-24T20:56:28;101798.25;;;12.40;93.26
35224;BME280;21367;51.930;8.112;2023-05-24T21:01:32;101800.13;;;12.26;94.73
35224;BME280;21367;51.930;8.112;2023-05-24T21:06:36;101807.84;;;12.26;96.29
35224;BME280;21367;51.930;8.112;2023-05-24T21:11:44;101815.97;;;12.34;96.61
35224;BME280;21367;51.930;8.112;2023-05-24T21:16:47;101823.47;;;12.29;98.82
35224;BME280;21367;51.930;8.112;2023-05-24T21:21:51;101820.06;;;12.46;96.77
35224;BME280;21367;51.930;8.112;2023-05-24T21:26:58;101830.25;;;12.60;96.59
35224;BME280;21367;51.930;8.112;2023-05-24T21:32:03;101832.47;;;12.21;98.49
35224;BME280;21367;51.930;8.112;2023-05-24T21:37:09;101839.97;;;12.49;96.54
35224;BME280;21367;51.930;8.112;2023-05-24T21:42:15;101842.78;;;12.21;99.29
35224;BME280;21367;51.930;8.112;2023-05-24T21:47:19;101843.41;;;12.00;100.00
35224;BME280;21367;51.930;8.112;2023-05-24T21:52:23;101844.88;;;12.12;99.13
35224;BME280;21367;51.930;8.112;2023-05-24T21:57:30;101846.91;;;12.17;98.18
35224;BME280;21367;51.930;8.112;2023-05-24T22:02:34;101852.13;;;12.19;98.90
35224;BME280;21367;51.930;8.112;2023-05-24T22:07:38;101857.44;;;12.22;99.07
35224;BME280;21367;51.930;8.112;2023-05-24T22:12:45;101861.97;;;12.10;99.88
35224;BME280;21367;51.930;8.112;2023-05-24T22:17:48;101869.53;;;12.07;100.00
35224;BME280;21367;51.930;8.112;2023-05-24T22:22:52;101869.69;;;12.10;100.00
35224;BME280;21367;51.930;8.112;2023-05-24T22:28:07;101873.16;;;12.10;100.00
35224;BME280;21367;51.930;8.112;2023-05-24T22:33:11;101873.03;;;11.92;100.00
35224;BME280;21367;51.930;8.112;2023-05-24T22:38:16;101870.28;;;11.89;99.66
35224;BME280;21367;51.930;8.112;2023-05-24T22:43:23;101874.25;;;11.84;98.87
35224;BME280;21367;51.930;8.112;2023-05-24T22:48:39;101873.72;;;11.75;98.98
35224;BME280;21367;51.930;8.112;2023-05-24T22:53:43;101872.25;;;11.64;99.57
35224;BME280;21367;51.930;8.112;2023-05-24T22:58:49;101870.84;;;11.39;100.00
35224;BME280;21367;51.930;8.112;2023-05-24T23:03:53;101874.47;;;11.43;100.00
35224;BME280;21367;51.930;8.112;2023-05-24T23:09:00;101874.13;;;11.37;99.94
35224;BME280;21367;51.930;8.112;2023-05-24T23:14:07;101895.59;;;11.37;100.00
35224;BME280;21367;51.930;8.112;2023-05-24T23:19:12;101895.16;;;11.15;100.00
35224;BME280;21367;51.930;8.112;2023-05-24T23:24:17;101883.19;;;11.45;100.00
35224;BME280;21367;51.930;8.112;2023-05-24T23:29:25;101891.44;;;11.54;100.00
35224;BME280;21367;51.930;8.112;2023-05-24T23:34:29;101890.00;;;11.59;100.00
35224;BME280;21367;51.930;8.112;2023-05-24T23:39:34;101892.56;;;11.59;100.00
35224;BME280;21367;51.930;8.112;2023-05-24T23:44:41;101890.09;;;11.46;100.00
35224;BME280;21367;51.930;8.112;2023-05-24T23:49:45;101897.47;;;11.69;100.00
35224;BME280;21367;51.930;8.112;2023-05-24T23:54:50;101888.28;;;11.74;100.00
35224;BME280;21367;51.930;8.112;2023-05-24T23:59:58;101896.13;;;11.76;99.92
